Terminal Aerodrome Forecast
Issued by NWS

Home | Current Version | Previous Version | Text Only | Print | Product List | Glossary On
Versions: 1 2 3 4 5 6 7 8 9 10 11 12 13 14 15 16 17 18 19 20 21 22 23 24 25 26 27 28
000
FTUS41 KOKX 252334
TAFSWF
TAF
KSWF 252334Z 2600/2706 27018G32KT 5SM -SHRA BKN015 BKN030
     FM260100 29015G25KT P6SM FEW025 BKN040
     FM260400 30015G25KT P6SM FEW050 SCT100
     FM261200 28015G26KT P6SM BKN050 BKN250
     FM262300 28010KT P6SM FEW060
     FM270200 25006KT P6SM SCT250
      AMD NOT SKED=

USA.gov is the U.S. government's official web portal to all federal, state and local government web resources and services.